Time;durP1;ratioP1;P1;durP2;ratioP2;P2;SDS_P1;SDS_P2;PMS_P1;PMS_P2;Temp;Humidity;BMP_temperature;BMP_pressure;BME280_temperature;BME280_humidity;BME280_pressure;Samples;Min_cycle;Max_cycle;Signal;HPM_P1;HPM_P2
2023/03/07 00:03:26;;;;;;;62.03;28.52;;;;;;;-1.75;100.00;99373.39;5129003;55;1140942;-67
2023/03/07 00:08:33;;;;;;;51.73;24.43;;;;;;;-1.78;100.00;99362.70;5127424;55;1141091;-70
2023/03/07 00:13:40;;;;;;;91.90;41.92;;;;;;;-1.80;100.00;99367.95;5146827;56;1141109;-69
2023/03/07 00:18:46;;;;;;;87.73;39.03;;;;;;;-1.81;100.00;99369.31;5129158;56;1140878;-69
2023/03/07 00:23:53;;;;;;;125.27;57.43;;;;;;;-1.84;100.00;99370.32;5100877;56;1140789;-71
2023/03/07 00:28:59;;;;;;;95.67;42.20;;;;;;;-1.87;100.00;99363.98;5150307;56;1143140;-68
2023/03/07 00:34:05;;;;;;;91.53;40.73;;;;;;;-1.94;100.00;99368.19;5125657;56;1141093;-70
2023/03/07 00:39:12;;;;;;;86.08;39.70;;;;;;;-1.99;100.00;99369.72;5116725;56;1141092;-68
2023/03/07 00:44:18;;;;;;;73.17;33.03;;;;;;;-2.03;100.00;99364.73;5139701;56;1141144;-72
2023/03/07 00:49:24;;;;;;;200.57;86.97;;;;;;;-2.10;100.00;99357.67;5108981;56;1141400;-72
2023/03/07 00:54:30;;;;;;;95.03;41.67;;;;;;;-2.08;100.00;99350.69;5128491;56;1143228;-69
2023/03/07 00:59:36;;;;;;;101.10;47.23;;;;;;;-2.04;100.00;99341.88;5145584;55;1140953;-66
2023/03/07 01:04:42;;;;;;;55.97;25.60;;;;;;;-2.04;100.00;99335.39;5125684;55;1142953;-69
2023/03/07 01:09:52;;;;;;;67.47;32.88;;;;;;;-2.07;100.00;99329.50;5126548;55;1141882;-68
2023/03/07 01:14:57;;;;;;;87.80;43.93;;;;;;;-2.17;100.00;99324.75;5146265;56;1141047;-64
2023/03/07 01:20:09;;;;;;;112.10;50.30;;;;;;;-2.23;100.00;99315.11;5117786;56;1140831;-71
2023/03/07 01:25:12;;;;;;;66.40;32.27;;;;;;;-2.31;100.00;99315.92;5145226;56;1142957;-70
2023/03/07 01:30:19;;;;;;;54.10;24.80;;;;;;;-2.42;100.00;99309.06;5143470;56;1141069;-70
2023/03/07 01:35:26;;;;;;;53.30;21.87;;;;;;;-2.52;100.00;99305.59;5121413;56;1140913;-69
2023/03/07 01:40:34;;;;;;;51.20;23.07;;;;;;;-2.65;100.00;99302.31;5141242;55;1140953;-70
2023/03/07 01:45:47;;;;;;;49.95;22.60;;;;;;;-2.82;100.00;99293.14;5226914;55;1140883;-72
2023/03/07 01:50:55;;;;;;;56.67;24.13;;;;;;;-2.94;100.00;99295.34;5213739;55;1140728;-66
2023/03/07 01:56:01;;;;;;;53.17;22.62;;;;;;;-2.87;100.00;99279.09;5212398;55;1141113;-69
2023/03/07 02:01:11;;;;;;;49.93;20.40;;;;;;;-2.92;100.00;99281.06;5219893;55;1140860;-67
2023/03/07 02:06:17;;;;;;;53.53;22.57;;;;;;;-3.06;100.00;99279.52;5210163;55;1259813;-67
2023/03/07 02:11:24;;;;;;;33.80;14.37;;;;;;;-3.20;100.00;99282.64;5166257;55;1141133;-70
2023/03/07 02:16:31;;;;;;;51.67;22.57;;;;;;;-3.33;100.00;99285.34;5139810;56;1141021;-70
2023/03/07 02:21:47;;;;;;;74.50;28.50;;;;;;;-3.50;100.00;99280.02;5129677;56;1140924;-68
2023/03/07 02:26:54;;;;;;;73.10;28.80;;;;;;;-3.65;100.00;99271.14;5040492;56;1140775;-69
2023/03/07 02:32:00;;;;;;;66.87;27.67;;;;;;;-3.72;100.00;99263.26;5062403;56;1141501;-67
2023/03/07 02:37:13;;;;;;;73.20;26.90;;;;;;;-3.68;100.00;99258.37;5073555;56;1141140;-65
2023/03/07 02:42:25;;;;;;;70.53;28.03;;;;;;;-3.57;100.00;99257.03;5045779;56;1140904;-68
2023/03/07 02:47:33;;;;;;;64.43;26.70;;;;;;;-3.48;100.00;99251.08;5108747;56;1140935;-67
2023/03/07 02:52:40;;;;;;;62.03;24.47;;;;;;;-3.34;100.00;99247.48;5149098;55;1141061;-70
2023/03/07 02:57:47;;;;;;;62.30;24.50;;;;;;;-3.26;100.00;99236.38;5199199;55;1140887;-69
2023/03/07 03:02:54;;;;;;;62.13;24.63;;;;;;;-3.18;100.00;99229.13;5155204;55;1140949;-71
2023/03/07 03:08:00;;;;;;;70.20;25.70;;;;;;;-3.14;100.00;99211.74;5223660;55;1140829;-67
2023/03/07 03:13:07;;;;;;;62.67;25.43;;;;;;;-3.15;100.00;99204.89;5070095;55;1140882;-69
2023/03/07 03:18:13;;;;;;;63.70;24.87;;;;;;;-3.16;100.00;99197.59;5045852;56;1140826;-67
2023/03/07 03:23:19;;;;;;;58.87;25.17;;;;;;;-3.12;100.00;99186.66;5112797;56;1140926;-68
2023/03/07 03:28:26;;;;;;;52.37;22.63;;;;;;;-3.13;100.00;99178.52;5114914;56;1140819;-70
2023/03/07 03:33:32;;;;;;;49.87;20.10;;;;;;;-3.13;100.00;99181.10;5112426;56;1140982;-67
2023/03/07 03:38:38;;;;;;;45.03;20.63;;;;;;;-3.14;100.00;99166.05;5129280;56;1141191;-67
2023/03/07 03:43:47;;;;;;;40.90;19.50;;;;;;;-3.11;100.00;99157.31;5129366;56;1141322;-65
2023/03/07 03:48:54;;;;;;;39.23;14.93;;;;;;;-3.19;100.00;99142.96;5093737;56;1140846;-69
2023/03/07 03:54:02;;;;;;;31.07;13.80;;;;;;;-3.16;100.00;99139.86;5065127;57;1140978;-68
2023/03/07 03:59:08;;;;;;;29.43;13.50;;;;;;;-3.13;100.00;99126.80;5093178;55;1140812;-67
2023/03/07 04:04:14;;;;;;;25.40;12.30;;;;;;;-3.14;100.00;99120.79;5145168;55;1140894;-68
2023/03/07 04:09:22;;;;;;;29.33;14.27;;;;;;;-3.06;100.00;99104.95;5216182;55;1140969;-68
2023/03/07 04:14:28;;;;;;;32.77;14.67;;;;;;;-2.98;100.00;99105.43;5130796;56;1140835;-68
2023/03/07 04:19:34;;;;;;;26.53;13.40;;;;;;;-2.93;100.00;99093.14;5131216;56;1140848;-67
2023/03/07 04:24:41;;;;;;;26.43;13.43;;;;;;;-2.89;100.00;99086.89;5151250;56;1140780;-69
2023/03/07 04:29:47;;;;;;;34.05;13.68;;;;;;;-2.84;100.00;99083.66;5131027;55;1141002;-67
2023/03/07 04:34:58;;;;;;;29.63;14.53;;;;;;;-2.81;100.00;99079.64;5131313;56;1140787;-70
2023/03/07 04:40:05;;;;;;;32.40;13.57;;;;;;;-2.79;100.00;99089.46;5234096;55;1141032;-72
2023/03/07 04:45:11;;;;;;;28.93;13.17;;;;;;;-2.75;100.00;99084.51;5158767;55;1140860;-67
2023/03/07 04:50:21;;;;;;;30.87;13.83;;;;;;;-2.72;100.00;99075.31;5110332;56;1141101;-66
2023/03/07 04:55:27;;;;;;;30.77;14.23;;;;;;;-2.74;100.00;99064.65;5137480;56;1140876;-68
2023/03/07 05:00:32;;;;;;;34.70;13.63;;;;;;;-2.66;100.00;99056.92;5117108;56;1140904;-67
2023/03/07 05:05:39;;;;;;;37.43;14.73;;;;;;;-2.65;100.00;99041.78;5091993;56;1140779;-69
2023/03/07 05:10:46;;;;;;;26.75;13.83;;;;;;;-2.64;100.00;99029.23;5064130;56;1141157;-68
2023/03/07 05:15:54;;;;;;;35.53;14.67;;;;;;;-2.61;100.00;99029.09;5058684;56;1141019;-72
2023/03/07 05:21:01;;;;;;;30.55;13.72;;;;;;;-2.58;100.00;99017.27;5033256;55;1141351;-70
2023/03/07 05:26:08;;;;;;;30.15;12.98;;;;;;;-2.53;100.00;99011.88;5072921;56;1140907;-69
2023/03/07 05:31:15;;;;;;;37.00;16.60;;;;;;;-2.50;100.00;98998.80;5116560;56;1141235;-70
2023/03/07 05:36:21;;;;;;;31.50;12.93;;;;;;;-2.46;100.00;98983.97;5090430;56;1140809;-67
2023/03/07 05:41:29;;;;;;;43.93;17.70;;;;;;;-2.42;100.00;98977.70;5091080;56;1140750;-70
2023/03/07 05:46:35;;;;;;;31.53;14.87;;;;;;;-2.37;100.00;98975.73;5125510;55;1140953;-73
2023/03/07 05:51:42;;;;;;;24.50;10.50;;;;;;;-2.34;100.00;98960.05;5169964;55;1140879;-70
2023/03/07 05:56:48;;;;;;;23.20;13.23;;;;;;;-2.27;100.00;98965.28;5171050;55;1140830;-72
2023/03/07 06:01:55;;;;;;;75.47;52.77;;;;;;;-2.23;100.00;98940.92;5194234;55;1145201;-69
2023/03/07 06:07:02;;;;;;;38.67;21.00;;;;;;;-2.16;100.00;98934.53;5172242;55;1140814;-70
2023/03/07 06:12:10;;;;;;;58.92;35.00;;;;;;;-2.10;100.00;98927.72;5167988;55;1141034;-69
2023/03/07 06:17:16;;;;;;;31.40;16.90;;;;;;;-2.10;100.00;98912.64;5148697;55;1140906;-64
2023/03/07 06:22:22;;;;;;;28.57;14.90;;;;;;;-2.03;100.00;98926.50;5154835;55;1141051;-67
2023/03/07 06:27:30;;;;;;;38.30;17.30;;;;;;;-1.97;100.00;98922.28;5078437;56;1140812;-71
2023/03/07 06:32:36;;;;;;;26.90;13.93;;;;;;;-1.90;100.00;98911.98;5080526;55;1140858;-70
2023/03/07 06:37:42;;;;;;;54.53;23.70;;;;;;;-1.84;100.00;98901.31;5126626;55;1140803;-70
2023/03/07 06:42:48;;;;;;;84.70;29.40;;;;;;;-1.75;100.00;98901.27;5046224;56;1140737;-69
2023/03/07 06:47:58;;;;;;;59.17;25.83;;;;;;;-1.66;100.00;98906.41;5118101;55;1142788;-64
2023/03/07 06:53:04;;;;;;;46.23;23.77;;;;;;;-1.60;100.00;98895.27;4977341;57;1141044;-66
2023/03/07 06:58:10;;;;;;;44.17;19.80;;;;;;;-1.53;100.00;98880.23;5110434;55;1140990;-70
2023/03/07 07:03:18;;;;;;;62.03;28.60;;;;;;;-1.46;100.00;98876.36;5064875;55;1140939;-70
2023/03/07 07:08:24;;;;;;;41.97;22.00;;;;;;;-1.39;100.00;98858.27;5176120;55;1140809;-70
2023/03/07 07:13:31;;;;;;;51.10;23.57;;;;;;;-1.27;100.00;98862.77;5137389;55;1140944;-67
2023/03/07 07:18:39;;;;;;;48.37;24.00;;;;;;;-1.16;100.00;98843.99;5136929;55;1140754;-71
2023/03/07 07:23:46;;;;;;;61.90;27.93;;;;;;;-1.06;100.00;98835.59;5158917;55;1140911;-66
2023/03/07 07:28:55;;;;;;;62.77;29.47;;;;;;;-0.95;100.00;98826.38;5192516;55;1140924;-66
2023/03/07 07:34:01;;;;;;;84.17;36.93;;;;;;;-0.86;100.00;98830.56;5136669;55;1140839;-68
2023/03/07 07:39:10;;;;;;;59.13;29.02;;;;;;;-0.80;100.00;98812.05;5159989;55;1140855;-65
2023/03/07 07:44:17;;;;;;;64.35;30.12;;;;;;;-0.71;100.00;98801.11;5177194;55;1141114;-66
2023/03/07 07:49:25;;;;;;;58.93;29.23;;;;;;;-0.61;100.00;98785.81;5146854;55;1140829;-67
2023/03/07 07:54:31;;;;;;;87.20;31.77;;;;;;;-0.52;100.00;98794.38;5124353;55;1140777;-72
2023/03/07 07:59:38;;;;;;;50.40;22.47;;;;;;;-0.45;100.00;98788.33;5108471;55;1141126;-69
2023/03/07 08:04:46;;;;;;;50.73;22.90;;;;;;;-0.34;100.00;98791.59;5129269;55;1141000;-71
2023/03/07 08:09:52;;;;;;;69.77;31.97;;;;;;;-0.23;100.00;98785.27;5126002;55;1141010;-65
2023/03/07 08:14:57;;;;;;;48.83;23.57;;;;;;;-0.16;100.00;98782.22;5116380;55;1140887;-68
2023/03/07 08:20:08;;;;;;;46.98;23.18;;;;;;;-0.08;100.00;98759.64;5112306;55;1140872;-70
2023/03/07 08:25:20;;;;;;;41.53;22.83;;;;;;;0.00;100.00;98749.63;5107125;55;1141216;-66
2023/03/07 08:30:29;;;;;;;52.67;25.12;;;;;;;0.10;100.00;98742.06;5135547;55;1138812;-70
2023/03/07 08:35:35;;;;;;;64.93;28.60;;;;;;;0.22;100.00;98731.72;5113654;55;1138777;-71
2023/03/07 08:40:41;;;;;;;71.90;30.70;;;;;;;0.32;100.00;98727.59;5116192;54;1138787;-67
2023/03/07 08:45:51;;;;;;;56.00;24.93;;;;;;;0.43;100.00;98732.58;5084432;55;1138862;-67
2023/03/07 08:50:57;;;;;;;58.37;27.47;;;;;;;0.48;100.00;98719.63;5110603;55;1138980;-68
2023/03/07 08:56:09;;;;;;;50.13;27.63;;;;;;;0.53;100.00;98713.67;5105080;55;1138920;-68
2023/03/07 09:01:16;;;;;;;59.70;27.83;;;;;;;0.63;100.00;98701.72;5094469;55;1138811;-67
2023/03/07 09:06:23;;;;;;;71.70;30.10;;;;;;;0.72;100.00;98697.69;5118032;55;1138963;-66
2023/03/07 09:11:28;;;;;;;59.53;29.10;;;;;;;0.83;100.00;98691.30;5110643;55;1138825;-69
2023/03/07 09:16:35;;;;;;;60.37;28.97;;;;;;;0.97;100.00;98683.39;5105372;55;1138738;-68
2023/03/07 09:21:41;;;;;;;63.00;28.80;;;;;;;1.08;100.00;98681.81;5122776;55;1138670;-66
2023/03/07 09:26:46;;;;;;;70.00;31.13;;;;;;;1.13;100.00;98669.33;5096794;55;1138864;-68
2023/03/07 09:31:52;;;;;;;56.43;25.43;;;;;;;1.18;100.00;98662.05;5098323;55;1138811;-69
2023/03/07 09:36:59;;;;;;;51.00;23.80;;;;;;;1.23;100.00;98664.67;5102248;55;1138782;-67
2023/03/07 09:42:42;;;;;;;45.37;20.80;;;;;;;1.18;100.00;98662.05;5119691;55;1138812;-69
2023/03/07 09:48:24;;;;;;;44.90;20.90;;;;;;;1.08;100.00;98661.83;5041275;56;1138792;-66
2023/03/07 09:53:46;;;;;;;86.70;43.70;;;;;;;0.97;100.00;98665.17;4806923;59;1139005;-68
2023/03/07 09:59:11;;;;;;;55.53;27.70;;;;;;;0.87;100.00;98660.70;4823948;58;1140689;-70
2023/03/07 10:04:22;;;;;;;46.07;23.17;;;;;;;0.79;100.00;98662.97;4823920;59;1138955;-71
2023/03/07 10:09:28;;;;;;;52.90;24.30;;;;;;;0.75;100.00;98658.47;4811881;59;1138732;-68
2023/03/07 10:14:56;;;;;;;39.70;21.00;;;;;;;0.77;100.00;98662.23;4886866;58;1138903;-68
2023/03/07 10:20:35;;;;;;;36.93;18.75;;;;;;;0.80;100.00;98664.17;4864571;58;1138912;-68
2023/03/07 10:25:49;;;;;;;34.67;15.83;;;;;;;0.82;100.00;98655.80;4899603;58;1138810;-70
2023/03/07 10:31:04;;;;;;;38.43;21.17;;;;;;;0.84;100.00;98639.62;4990041;55;1138787;-68
2023/03/07 10:36:19;;;;;;;39.97;23.73;;;;;;;0.88;100.00;98635.88;5142796;55;1138929;-71
2023/03/07 10:41:25;;;;;;;38.70;20.47;;;;;;;0.95;100.00;98627.16;5157778;55;1138734;-75
2023/03/07 10:46:34;;;;;;;36.60;19.70;;;;;;;1.01;100.00;98618.95;5126237;55;1138620;-68
2023/03/07 10:52:14;;;;;;;30.80;16.93;;;;;;;1.06;100.00;98640.30;5141334;55;1138686;-68
2023/03/07 10:57:27;;;;;;;35.23;20.03;;;;;;;1.13;100.00;98615.95;5045800;55;1138717;-66
2023/03/07 11:02:44;;;;;;;34.00;17.60;;;;;;;1.16;100.00;98606.64;5051715;56;1138965;-76
2023/03/07 11:07:50;;;;;;;41.37;21.73;;;;;;;1.18;100.00;98609.97;5035326;56;1138820;-79
2023/03/07 11:12:57;;;;;;;37.33;19.92;;;;;;;1.24;100.00;98591.30;5035102;56;1138915;-78
2023/03/07 11:18:04;;;;;;;36.27;17.97;;;;;;;1.27;100.00;98588.02;5028262;57;1138642;-77
2023/03/07 11:23:30;;;;;;;40.90;21.17;;;;;;;1.34;100.00;98574.10;4997931;56;1138810;-67
2023/03/07 11:28:36;;;;;;;44.73;24.57;;;;;;;1.39;100.00;98577.19;5053232;56;1138827;-73
2023/03/07 11:33:53;;;;;;;42.67;23.73;;;;;;;1.43;100.00;98572.14;5063446;56;1138959;-78
2023/03/07 11:39:32;;;;;;;33.75;19.20;;;;;;;1.51;100.00;98575.05;5065342;56;1138833;-76
2023/03/07 11:44:51;;;;;;;38.00;22.83;;;;;;;1.55;100.00;98574.33;5058431;56;1138726;-76
2023/03/07 11:50:15;;;;;;;42.94;21.66;;;;;;;1.60;100.00;98570.93;5046369;56;1138730;-76
2023/03/07 11:55:28;;;;;;;38.30;18.97;;;;;;;1.64;100.00;98558.88;5063145;56;1138846;-78
2023/03/07 12:00:53;;;;;;;39.50;19.53;;;;;;;1.68;100.00;98561.60;5089952;55;1138748;-77
2023/03/07 12:06:26;;;;;;;31.77;17.43;;;;;;;1.75;100.00;98556.80;5138900;55;1138806;-74
2023/03/07 12:11:41;;;;;;;37.97;22.83;;;;;;;1.78;100.00;98553.97;5136570;55;1138656;-77
2023/03/07 12:17:07;;;;;;;50.13;26.27;;;;;;;1.81;100.00;98547.70;5137097;55;1138801;-75
2023/03/07 12:22:39;;;;;;;36.08;18.32;;;;;;;1.87;100.00;98545.94;5158907;54;1138984;-74
2023/03/07 12:27:53;;;;;;;41.97;23.60;;;;;;;1.92;100.00;98535.54;5053740;56;1138888;-79
2023/03/07 12:33:00;;;;;;;38.88;21.23;;;;;;;2.01;100.00;98537.92;5124458;55;1138946;-75
2023/03/07 12:38:12;;;;;;;31.20;18.57;;;;;;;2.09;100.00;98521.25;5163811;55;1138647;-78
2023/03/07 12:43:23;;;;;;;;;;;;;;;2.15;100.00;98525.16;5149781;55;1138781;-77
2023/03/07 12:48:42;;;;;;;36.23;21.27;;;;;;;2.19;100.00;98513.09;5140152;55;972018;-78
2023/03/07 12:54:04;;;;;;;37.07;21.57;;;;;;;2.26;100.00;98512.16;5138803;55;1136712;-79
2023/03/07 12:59:20;;;;;;;33.97;18.70;;;;;;;2.31;100.00;98509.55;5158302;55;1139028;-75
2023/03/07 13:04:41;;;;;;;29.80;17.23;;;;;;;2.35;100.00;98514.89;5134699;55;1138847;-79
2023/03/07 13:09:50;;;;;;;35.07;19.10;;;;;;;2.41;100.00;98504.01;5133020;55;1138727;-73
2023/03/07 13:15:05;;;;;;;28.37;14.77;;;;;;;2.50;100.00;98501.16;5128520;54;1138884;-78
2023/03/07 13:20:33;;;;;;;28.25;13.55;;;;;;;2.56;100.00;98501.17;5063559;56;1138670;-75
2023/03/07 13:25:47;;;;;;;26.33;15.10;;;;;;;2.61;100.00;98499.02;5102853;55;1138768;-82
2023/03/07 13:31:18;;;;;;;20.53;12.27;;;;;;;2.66;100.00;98485.98;5090964;55;1138786;-75
2023/03/07 13:36:38;;;;;;;26.10;16.07;;;;;;;2.71;100.00;98476.02;5102014;55;1138738;-80
2023/03/07 13:41:50;;;;;;;24.40;15.87;;;;;;;2.76;100.00;98475.64;5028023;56;1138990;-77
2023/03/07 13:47:01;;;;;;;21.37;12.83;;;;;;;2.78;100.00;98465.44;5105476;55;1138974;-79
2023/03/07 13:52:33;;;;;;;23.27;13.10;;;;;;;2.80;100.00;98451.80;5112741;55;1139001;-76
2023/03/07 13:57:40;;;;;;;;;;;;;;;2.81;100.00;98460.45;5136796;55;1138809;-83
2023/03/07 14:02:46;;;;;;;22.23;14.47;;;;;;;2.82;100.00;98443.84;5099993;55;971889;-77
2023/03/07 14:07:52;;;;;;;32.93;19.83;;;;;;;2.79;100.00;98444.91;5085902;55;1136552;-79
2023/03/07 14:13:29;;;;;;;28.45;17.50;;;;;;;2.78;100.00;98431.98;5067522;56;1138895;-77
2023/03/07 14:18:56;;;;;;;31.53;17.67;;;;;;;2.78;100.00;98435.89;5080225;55;1138807;-77
2023/03/07 14:24:12;;;;;;;40.97;18.40;;;;;;;2.76;100.00;98429.48;5168772;55;1138970;-74
2023/03/07 14:29:28;;;;;;;31.40;16.82;;;;;;;2.76;100.00;98422.13;5201726;55;1138938;-76
2023/03/07 14:34:36;;;;;;;31.50;16.60;;;;;;;2.74;100.00;98413.62;5166331;55;1138673;-80
2023/03/07 14:40:07;;;;;;;21.77;13.97;;;;;;;2.73;100.00;98414.09;5118025;55;1138724;-75
2023/03/07 14:45:24;;;;;;;22.50;14.50;;;;;;;2.74;100.00;98409.23;5129027;55;1138738;-79
2023/03/07 14:50:31;;;;;;;27.37;15.07;;;;;;;2.75;100.00;98403.53;5148719;56;1138818;-76
2023/03/07 14:55:41;;;;;;;46.57;23.67;;;;;;;2.76;100.00;98388.20;5137477;55;1138848;-74
2023/03/07 15:00:46;;;;;;;15.83;10.90;;;;;;;2.77;100.00;98390.69;5169735;55;1138955;-75
2023/03/07 15:06:00;;;;;;;21.63;13.87;;;;;;;2.76;100.00;98383.81;5029343;56;1138967;-78
2023/03/07 15:11:25;;;;;;;23.40;14.80;;;;;;;2.77;100.00;98376.81;5085427;56;1138755;-73
2023/03/07 15:16:47;;;;;;;29.90;17.13;;;;;;;2.77;100.00;98372.89;5096362;56;1138703;-75
2023/03/07 15:21:59;;;;;;;24.33;15.30;;;;;;;2.76;100.00;98359.02;5101971;56;1138690;-75
2023/03/07 15:27:09;;;;;;;108.83;37.30;;;;;;;2.78;100.00;98356.28;5092738;56;1138951;-77
2023/03/07 15:32:37;;;;;;;95.50;40.33;;;;;;;2.79;100.00;98357.94;5130070;55;1140953;-75
2023/03/07 15:37:56;;;;;;;73.07;31.33;;;;;;;2.81;100.00;98351.66;5086287;56;1138988;-72
2023/03/07 15:43:14;;;;;;;56.02;24.40;;;;;;;2.82;100.00;98344.17;5054749;56;1138803;-75
2023/03/07 15:48:49;;;;;;;67.30;26.57;;;;;;;2.85;100.00;98348.33;5032099;56;1138809;-80
2023/03/07 15:54:10;;;;;;;91.65;38.83;;;;;;;2.85;100.00;98334.45;5045460;56;1138914;-75
2023/03/07 15:59:33;;;;;;;89.92;38.15;;;;;;;2.86;100.00;98330.88;5065305;56;1138802;-74
2023/03/07 16:04:41;;;;;;;53.57;24.40;;;;;;;2.88;100.00;98328.98;5060036;56;1138725;-78
2023/03/07 16:09:47;;;;;;;38.83;21.20;;;;;;;2.88;100.00;98321.98;5130220;55;1138893;-80
2023/03/07 16:14:54;;;;;;;38.50;20.33;;;;;;;2.89;100.00;98297.53;5084332;56;1138859;-76
2023/03/07 16:20:00;;;;;;;120.62;51.50;;;;;;;2.90;100.00;98303.58;5104991;55;1138959;-73
2023/03/07 16:25:07;;;;;;;79.90;31.73;;;;;;;2.91;100.00;98306.52;5068045;55;1140818;-73
2023/03/07 16:30:17;;;;;;;129.80;41.80;;;;;;;2.90;100.00;98296.58;5039458;55;1138911;-74
2023/03/07 16:35:27;;;;;;;17.10;8.43;;;;;;;2.90;100.00;98307.02;5081768;56;1140759;-75
2023/03/07 16:40:33;;;;;;;5.83;4.37;;;;;;;2.79;100.00;98373.61;5176890;55;1136644;-73
2023/03/07 16:45:40;;;;;;;5.63;4.00;;;;;;;2.44;100.00;98377.22;5218403;55;1134513;-78
2023/03/07 16:50:47;;;;;;;4.32;3.70;;;;;;;2.17;100.00;98383.77;5236720;55;1134811;-74
2023/03/07 16:55:54;;;;;;;3.67;2.57;;;;;;;1.97;100.00;98400.48;5240931;54;1134667;-75
2023/03/07 17:01:00;;;;;;;2.55;2.08;;;;;;;1.74;100.00;98407.89;5218030;55;1134709;-74
2023/03/07 17:06:09;;;;;;;1.93;1.53;;;;;;;1.43;100.00;98427.58;5218615;55;1134827;-75
2023/03/07 17:11:27;;;;;;;2.52;1.75;;;;;;;1.21;100.00;98440.52;5224401;55;1134928;-76
2023/03/07 17:16:39;;;;;;;3.03;2.77;;;;;;;1.02;100.00;98450.95;5167600;55;1134660;-74
2023/03/07 17:21:44;;;;;;;3.87;2.47;;;;;;;0.93;100.00;98455.97;5166797;55;1134409;-75
2023/03/07 17:26:52;;;;;;;3.70;2.83;;;;;;;0.82;100.00;98461.95;5168242;55;1134808;-75
2023/03/07 17:31:58;;;;;;;10.80;3.40;;;;;;;0.78;100.00;98471.37;5182652;55;1134887;-78
2023/03/07 17:37:05;;;;;;;4.50;3.50;;;;;;;0.72;100.00;98473.95;5164951;55;1136787;-73
2023/03/07 17:42:11;;;;;;;3.53;2.60;;;;;;;0.70;100.00;98466.25;5165496;55;1134830;-72
2023/03/07 17:47:17;;;;;;;4.03;3.17;;;;;;;0.69;100.00;98476.76;5187738;55;1134531;-75
2023/03/07 17:52:23;;;;;;;3.10;2.80;;;;;;;0.68;100.00;98475.92;5162137;55;1134846;-75
2023/03/07 17:57:29;;;;;;;4.97;3.97;;;;;;;0.70;100.00;98484.45;5167600;55;1134582;-75
2023/03/07 18:02:35;;;;;;;36.83;20.83;;;;;;;0.72;100.00;98486.13;5185953;55;1134645;-78
2023/03/07 18:07:42;;;;;;;24.97;9.07;;;;;;;0.74;100.00;98468.17;5175385;55;1138915;-78
2023/03/07 18:12:52;;;;;;;17.30;7.87;;;;;;;0.76;100.00;98474.10;5090263;56;1136736;-79
2023/03/07 18:17:59;;;;;;;5.22;3.35;;;;;;;0.79;100.00;98475.63;5122239;56;1136711;-77
2023/03/07 18:23:05;;;;;;;9.43;5.00;;;;;;;0.78;100.00;98487.81;5142733;56;1134633;-75
2023/03/07 18:28:10;;;;;;;7.58;4.60;;;;;;;0.78;100.00;98498.69;5098465;56;1134585;-75
2023/03/07 18:33:16;;;;;;;12.47;6.08;;;;;;;0.74;100.00;98490.28;5060516;56;1134643;-77
2023/03/07 18:38:22;;;;;;;6.75;3.75;;;;;;;0.74;100.00;98511.09;5080393;56;1136767;-78
2023/03/07 18:43:28;;;;;;;7.73;4.30;;;;;;;0.73;100.00;98499.50;5106190;56;1134615;-78
2023/03/07 18:48:34;;;;;;;12.70;6.57;;;;;;;0.73;100.00;98492.99;5095030;56;1134834;-74
2023/03/07 18:53:40;;;;;;;21.87;10.67;;;;;;;0.72;100.00;98492.16;5086309;56;1136570;-80
2023/03/07 18:58:46;;;;;;;14.97;8.93;;;;;;;0.69;100.00;98493.66;5009222;56;1138863;-72
2023/03/07 19:03:54;;;;;;;51.58;22.98;;;;;;;0.68;100.00;98501.11;4999608;57;1136652;-78
2023/03/07 19:09:02;;;;;;;18.10;9.63;;;;;;;0.67;100.00;98495.07;5027529;57;1138884;-73
2023/03/07 19:14:07;;;;;;;19.63;8.63;;;;;;;0.68;100.00;98500.64;5093153;56;1136559;-73
2023/03/07 19:19:13;;;;;;;34.13;14.53;;;;;;;0.66;100.00;98500.37;5072286;55;1136640;-79
2023/03/07 19:24:19;;;;;;;8.33;5.33;;;;;;;0.67;100.00;98513.28;4929528;57;1138985;-79
2023/03/07 19:29:25;;;;;;;10.80;6.07;;;;;;;0.67;100.00;98529.36;5019629;56;1134548;-79
2023/03/07 19:34:30;;;;;;;10.90;5.03;;;;;;;0.69;100.00;98532.69;4995127;56;1136894;-76
2023/03/07 19:39:36;;;;;;;8.90;4.90;;;;;;;0.68;100.00;98530.55;4990490;57;1136710;-72
2023/03/07 19:44:42;;;;;;;10.50;5.37;;;;;;;0.68;100.00;98529.25;4936907;57;1134549;-79
2023/03/07 19:49:48;;;;;;;6.70;4.17;;;;;;;0.66;100.00;98536.33;4930601;57;1136639;-77
2023/03/07 19:54:55;;;;;;;8.03;4.60;;;;;;;0.65;100.00;98534.66;5065431;56;1134684;-79
2023/03/07 20:00:00;;;;;;;9.53;5.63;;;;;;;0.64;100.00;98525.19;5011061;56;1134771;-77
2023/03/07 20:05:08;;;;;;;17.37;7.00;;;;;;;0.64;100.00;98525.19;4985416;57;1134804;-79
2023/03/07 20:10:14;;;;;;;14.30;5.12;;;;;;;0.66;100.00;98523.32;5040144;56;1136596;-73
2023/03/07 20:15:20;;;;;;;8.77;4.40;;;;;;;0.66;100.00;98526.39;5033788;56;1136773;-78
2023/03/07 20:20:25;;;;;;;8.23;5.20;;;;;;;0.66;100.00;98535.50;5020406;56;1134612;-76
2023/03/07 20:25:32;;;;;;;11.97;5.40;;;;;;;0.66;100.00;98535.03;4947789;57;1134827;-74
2023/03/07 20:30:39;;;;;;;9.27;4.83;;;;;;;0.63;100.00;98539.13;5048621;57;1136742;-74
2023/03/07 20:35:45;;;;;;;14.10;7.03;;;;;;;0.62;100.00;98530.97;4968139;57;1134739;-77
2023/03/07 20:41:00;;;;;;;7.47;5.40;;;;;;;0.63;100.00;98535.70;5065464;56;1136791;-80
2023/03/07 20:46:11;;;;;;;6.87;4.87;;;;;;;0.63;100.00;98540.91;4888643;58;1134816;-72
2023/03/07 20:51:22;;;;;;;10.17;5.70;;;;;;;0.62;100.00;98553.55;4867271;57;1134937;-76
2023/03/07 20:56:31;;;;;;;9.20;5.63;;;;;;;0.58;100.00;98549.52;4812172;59;1136937;-79
2023/03/07 21:01:37;;;;;;;13.60;5.63;;;;;;;0.59;100.00;98558.52;4782874;60;1134658;-77
2023/03/07 21:06:45;;;;;;;7.83;4.90;;;;;;;0.59;100.00;98556.38;4801858;59;1136667;-78
2023/03/07 21:11:51;;;;;;;11.07;6.60;;;;;;;0.59;100.00;98566.78;4787042;60;1134764;-76
2023/03/07 21:16:57;;;;;;;10.27;4.17;;;;;;;0.59;100.00;98567.62;4885376;58;1136723;-79
2023/03/07 21:22:03;;;;;;;10.43;5.77;;;;;;;0.59;100.00;98583.69;4877565;57;1136903;-79
2023/03/07 21:27:09;;;;;;;8.50;5.57;;;;;;;0.60;100.00;98586.66;4967624;57;1136736;-81
2023/03/07 21:32:14;;;;;;;7.85;5.22;;;;;;;0.59;100.00;98574.59;4972511;57;1134628;-78
2023/03/07 21:37:20;;;;;;;7.23;4.87;;;;;;;0.60;100.00;98599.20;4975119;57;1134543;-74
2023/03/07 21:42:26;;;;;;;6.83;4.90;;;;;;;0.62;100.00;98593.86;5000824;56;1134581;-80
2023/03/07 21:47:32;;;;;;;8.30;5.50;;;;;;;0.61;100.00;98597.42;4976227;57;1134711;-80
2023/03/07 21:52:38;;;;;;;12.87;6.73;;;;;;;0.60;100.00;98616.57;4915101;57;1134655;-80
2023/03/07 21:57:44;;;;;;;9.50;5.77;;;;;;;0.60;100.00;98618.70;4945875;57;1136904;-75
2023/03/07 22:02:49;;;;;;;10.40;6.10;;;;;;;0.61;100.00;98621.64;4990804;56;1134826;-80
2023/03/07 22:07:59;;;;;;;9.93;5.78;;;;;;;0.62;100.00;98636.31;4984739;57;1136836;-77
2023/03/07 22:13:05;;;;;;;8.23;4.60;;;;;;;0.62;100.00;98629.81;5011849;57;1134717;-76
2023/03/07 22:18:11;;;;;;;9.93;5.87;;;;;;;0.63;100.00;98629.34;5047423;56;1134558;-75
2023/03/07 22:23:16;;;;;;;11.33;6.85;;;;;;;0.64;100.00;98640.12;5173691;56;1134596;-79
2023/03/07 22:28:22;;;;;;;10.13;6.13;;;;;;;0.65;100.00;98641.31;5194022;55;1136586;-78
2023/03/07 22:33:28;;;;;;;10.83;7.13;;;;;;;0.67;100.00;98640.75;5161152;55;1136790;-76
2023/03/07 22:38:34;;;;;;;7.03;6.17;;;;;;;0.67;100.00;98642.52;5050784;56;1136755;-79
2023/03/07 22:43:40;;;;;;;7.45;5.72;;;;;;;0.65;100.00;98644.39;5091005;56;1134625;-81
2023/03/07 22:48:46;;;;;;;9.50;5.07;;;;;;;0.66;100.00;98650.79;5113319;56;1134405;-75
2023/03/07 22:53:51;;;;;;;11.83;5.80;;;;;;;0.63;100.00;98661.39;5113046;56;1134669;-73
2023/03/07 22:58:58;;;;;;;7.35;4.42;;;;;;;0.65;100.00;98666.03;5116074;55;1136753;-79
2023/03/07 23:04:07;;;;;;;8.45;5.37;;;;;;;0.63;100.00;98671.80;5137463;56;1134682;-76
2023/03/07 23:09:14;;;;;;;9.30;4.70;;;;;;;0.66;100.00;98682.47;5117459;56;1134674;-77
2023/03/07 23:14:20;;;;;;;9.05;5.20;;;;;;;0.63;100.00;98682.67;5117714;56;1134541;-79